메인 페이지
METAR-TAF:

METAR-TAF

공항 :

물탄 국제공항

물탄, 파키스탄

위도: 30-12-12N, 경도: 71-25-09E, 고도: 122m

현재 날씨관측

예보는 38분 전, 10:00시(UTC)에 발표되었습니다.
무풍
온도 20°C
습도 43%
기압 1022 hPa
시정: 4000m
연무

METAR: OPMT 151000Z 00000KT 4000 HZ NSC 20/07 Q1022 NOSIG

시각: 15:38 (10:38 UTC)

예보

예보는 6 시간 38분 전, 04:00시(UTC)에 발표되었습니다.
예보 대상 시간: 15일 06시부터 15일 24시까지 (UTC)
북동5kt
시정: 3000m
연기
확률 30% :
일시적
15일 06시부터 15일 08시까지 (UTC)
북동5kt
시정: 1500m
연기
15일 1800시부터 (UTC)
kt
시정: 1500m
박무

TAF: OPMT 150400Z 1506/1524 05005KT 3000 FU NSC TX20/1510Z PROB30 TEMPO 1506/1508 05005KT 1500 FU NSC FM151800 00000KT 1500 BR NSC

4,000개 이상의 공항 관측 자료 및 예보 (METAR 및 TAF 보고).

지도상에서 검색 가능한 기상관측소가 노란 점과 빨간 점으로 표시되어 있습니다.

기상관측소 명을 보려면 표시 위로 마우스를 이동하세요.

날씨 관측과 예보를 보려면 클릭하세요.

지도 변경 : 확대하려면 엑스 표시가 있는 녹색 버튼, 축소하려면 빼기 표시가 있는 녹색 버튼, 다음 페이지의 지도를 보려면 녹색 화살표를 클릭하세요.


METAR-TAF: